Etusivu
METAR-TAF:

METAR-TAF

Lentoasemat :

Kärdlan lentoasema

Kärdla, Viro

Leveyspiiri: 58-59N, Pituuspiiri: 022-49E, korkeus merenpinnasta: 5 m

Tämänhetkinen sää

Tämä raportti tehtiin 52 minuuttia sitten, kello 12.50 UTC
Tuuli 7 kn pohjoisesta
Lämpötila 17°C
Kosteus 55%
Ilmanpaine 1029 hPa
Näkyvyys 10 km tai enemmän
ei pilviä alle 1500 m:ssä eikä cumulonimbus-pilviä

METAR: EEKA 241250Z 35007KT CAVOK 17/08 Q1029

Aika: 16:42 (13:42 UTC)

Sääennuste

Tämä raportti tehtiin 1 tunti ja 37 minuuttia sitten, kello 12.05 UTC
Ennuste voimassa 24. päivästä klo 13 UTC - 24. päivään klo 19 UTC
Tuuli 10 kn pohjoisesta
Näkyvyys 10 km tai enemmän
ei pilviä alle 1500 m:ssä eikä cumulonimbus-pilviä

TAF: EEKA 241205Z 2413/2419 35010KT CAVOK

Säähavainnot ja -ennusteet yli 4000 lentoasemalta (METAR- ja TAF-raportit).

Käytössä olevat sääasemat on merkitty karttaan keltaisilla ja punaisilla pisteillä.

Aseta hiiri pisteen päälle nähdäksesi sääaseman nimen.

Klikkaa sitten nähdäksesi säähavainnot ja -ennusteet.

Kartan vaihtaminen: klikkaa mustalla rastilla varustettuja vihreitä pisteitä, niin voit zoomata sisään; viivalla varustettua vihreää pistettä, niin voit zoomata ulos tai vihreitä nuolia, niin pääset viereisille kartoille.


METAR-TAF: